createdAt,value
2022-11-16T05:09:32.270Z,99.99
2022-11-16T05:10:33.216Z,99.99
2022-11-16T05:11:30.881Z,99.99
2022-11-16T05:12:31.838Z,99.99
2022-11-16T05:13:31.851Z,99.99
2022-11-16T05:14:41.171Z,99.99
2022-11-16T05:15:42.785Z,99.99
2022-11-16T05:16:42.138Z,99.99
2022-11-16T05:17:42.133Z,99.99
2022-11-16T05:18:42.146Z,99.99
2022-11-16T05:19:42.117Z,99.99
2022-11-16T05:20:42.116Z,99.99
2022-11-16T05:21:42.104Z,99.99
2022-11-16T05:22:42.088Z,99.99
2022-11-16T05:23:42.092Z,99.99
2022-11-16T05:24:42.082Z,99.99
2022-11-16T05:25:42.051Z,99.99
2022-11-16T05:26:48.630Z,99.99
2022-11-16T05:27:42.070Z,99.99
2022-11-16T05:28:42.008Z,99.99
2022-11-16T05:29:41.992Z,99.99
2022-11-16T05:30:41.964Z,99.99
2022-11-16T05:31:41.989Z,99.99
2022-11-16T05:32:41.972Z,99.99
2022-11-16T05:33:41.930Z,99.99
2022-11-16T05:34:41.918Z,99.99
2022-11-16T05:35:42.014Z,99.99
2022-11-16T05:36:41.929Z,99.99
2022-11-16T05:37:41.892Z,99.99
2022-11-16T05:38:41.891Z,99.99
2022-11-16T05:39:41.929Z,99.99
2022-11-16T05:40:41.882Z,99.99
2022-11-16T05:41:41.881Z,99.99
2022-11-16T05:42:41.885Z,99.99
2022-11-16T05:43:41.837Z,99.99
2022-11-16T05:44:41.808Z,99.99
2022-11-16T05:45:41.819Z,99.99
2022-11-16T05:46:41.820Z,99.99
2022-11-16T05:47:41.800Z,99.99
2022-11-16T05:48:41.797Z,99.99
2022-11-16T05:49:41.782Z,99.99
2022-11-16T05:50:43.142Z,99.99
2022-11-16T05:51:41.756Z,99.99
2022-11-16T05:52:41.715Z,99.99
2022-11-16T05:53:41.745Z,99.99
2022-11-16T05:54:41.698Z,99.99
2022-11-16T05:55:41.712Z,99.99
2022-11-16T05:56:41.723Z,99.99
2022-11-16T05:57:41.694Z,99.99
2022-11-16T05:58:41.679Z,99.99
2022-11-16T05:59:41.653Z,99.99
2022-11-16T06:00:41.645Z,99.99
2022-11-16T06:01:41.620Z,99.99
2022-11-16T06:02:41.723Z,99.99
2022-11-16T06:03:41.622Z,99.99
2022-11-16T06:04:41.601Z,99.99
2022-11-16T06:05:41.839Z,99.99
2022-11-16T06:06:41.605Z,99.99
2022-11-16T06:07:41.548Z,99.99
2022-11-16T06:08:41.555Z,99.99
2022-11-16T06:09:41.533Z,99.99
2022-11-16T06:10:41.613Z,99.99
2022-11-16T06:11:41.540Z,99.99
2022-11-16T06:12:41.527Z,99.99
2022-11-16T06:13:48.097Z,99.99
2022-11-16T06:14:41.492Z,99.99
2022-11-16T06:15:41.467Z,99.99
2022-11-16T06:16:41.474Z,99.99
2022-11-16T06:17:41.445Z,99.99
2022-11-16T06:18:41.467Z,99.99
2022-11-16T06:19:41.437Z,99.99
2022-11-16T06:20:41.426Z,99.99
2022-11-16T06:21:41.449Z,99.99
2022-11-16T06:22:41.386Z,99.99
2022-11-16T06:23:41.403Z,99.99
2022-11-16T06:24:41.374Z,99.99
2022-11-16T06:25:41.346Z,99.99
2022-11-16T06:26:41.369Z,99.99
2022-11-16T06:27:41.327Z,99.99
2022-11-16T06:28:41.360Z,99.99
2022-11-16T06:29:41.331Z,99.99
2022-11-16T06:30:41.313Z,99.99
2022-11-16T06:31:41.302Z,99.99
2022-11-16T06:32:41.298Z,99.99
2022-11-16T06:33:47.782Z,99.99
2022-11-16T06:34:41.247Z,99.99
2022-11-16T06:35:41.262Z,99.99
2022-11-16T06:36:41.267Z,99.99
2022-11-16T06:37:41.218Z,99.99
2022-11-16T06:38:41.205Z,99.99
2022-11-16T06:39:41.213Z,99.99
2022-11-16T06:40:41.185Z,99.99
2022-11-16T06:41:41.710Z,99.99
2022-11-16T06:42:41.160Z,99.99
2022-11-16T06:43:41.147Z,99.99
2022-11-16T06:44:41.159Z,99.99
2022-11-16T06:45:41.142Z,99.99
2022-11-16T06:46:41.147Z,99.99
2022-11-16T06:47:41.106Z,99.99
2022-11-16T06:48:41.158Z,99.99
2022-11-16T06:49:41.716Z,99.99
2022-11-16T06:50:41.091Z,99.99
2022-11-16T06:51:41.084Z,99.99
2022-11-16T06:52:41.076Z,99.99
2022-11-16T06:53:41.050Z,99.99
2022-11-16T06:54:41.022Z,99.99
2022-11-16T06:55:41.034Z,99.99
2022-11-16T06:56:41.032Z,99.99
2022-11-16T06:57:41.217Z,99.99
2022-11-16T06:58:42.980Z,99.98
2022-11-16T06:59:40.993Z,99.37
2022-11-16T07:00:40.958Z,99.16
2022-11-16T07:01:41.019Z,99.16
2022-11-16T07:02:41.009Z,98.96
2022-11-16T07:03:40.930Z,99.21
2022-11-16T07:04:40.972Z,99.11
2022-11-16T07:05:40.950Z,99.31
2022-11-16T07:06:40.911Z,99.52
2022-11-16T07:07:40.894Z,99.11
2022-11-16T07:08:40.896Z,99.01
2022-11-16T07:09:40.889Z,99.21
2022-11-16T07:10:40.875Z,98.90
2022-11-16T07:11:40.847Z,98.85
2022-11-16T07:12:40.909Z,98.44
2022-11-16T07:13:40.854Z,97.52
2022-11-16T07:14:40.823Z,97.47
2022-11-16T07:15:40.811Z,96.29
2022-11-16T07:16:40.801Z,96.14
2022-11-16T07:17:40.771Z,96.34
2022-11-16T07:18:40.791Z,96.25
2022-11-16T07:19:40.756Z,96.25
2022-11-16T07:20:40.760Z,95.98
2022-11-16T07:21:40.754Z,96.29
2022-11-16T07:22:40.758Z,96.49
2022-11-16T07:23:40.752Z,96.39
2022-11-16T07:24:40.708Z,95.88
2022-11-16T07:25:40.696Z,95.67
2022-11-16T07:26:40.725Z,95.78
2022-11-16T07:27:40.674Z,95.37
2022-11-16T07:28:45.000Z,94.96
2022-11-16T07:29:40.899Z,94.55
2022-11-16T07:30:40.651Z,94.24
2022-11-16T07:31:40.630Z,93.99
2022-11-16T07:32:40.612Z,91.29
2022-11-16T07:33:40.609Z,91.29
2022-11-16T07:34:40.584Z,90.23
2022-11-16T07:35:40.610Z,89.51
2022-11-16T07:36:40.555Z,87.55
2022-11-16T07:37:40.559Z,84.66
2022-11-16T07:38:40.551Z,84.08
2022-11-16T07:39:40.544Z,86.00
2022-11-16T07:40:40.565Z,86.82
2022-11-16T07:41:40.713Z,86.24
2022-11-16T07:42:40.495Z,86.82
2022-11-16T07:43:40.566Z,86.76
2022-11-16T07:44:40.486Z,87.26
2022-11-16T07:45:40.459Z,88.12
2022-11-16T07:46:48.576Z,88.94
2022-11-16T07:47:40.448Z,87.20
2022-11-16T07:48:40.414Z,87.71
2022-11-16T07:49:40.417Z,87.29
2022-11-16T07:50:40.390Z,84.86
2022-11-16T07:51:40.410Z,83.63
2022-11-16T07:52:40.403Z,84.14
2022-11-16T07:53:40.361Z,84.58
2022-11-16T07:54:40.350Z,83.09
2022-11-16T07:55:44.776Z,79.56
2022-11-16T07:56:40.324Z,77.72
2022-11-16T07:57:40.333Z,76.94
2022-11-16T07:58:49.487Z,74.24
2022-11-16T07:59:40.289Z,71.67
2022-11-16T08:00:41.245Z,73.12
2022-11-16T08:01:40.869Z,74.27
2022-11-16T08:02:40.672Z,75.66
2022-11-16T08:03:40.696Z,76.51
2022-11-16T08:04:40.922Z,77.66
2022-11-16T08:05:40.768Z,77.90
2022-11-16T08:06:40.769Z,78.61
2022-11-16T08:07:40.830Z,80.54
2022-11-16T08:08:40.421Z,82.03
2022-11-16T08:09:40.251Z,82.64
2022-11-16T08:10:40.387Z,81.31
2022-11-16T08:11:40.722Z,78.37
2022-11-16T08:12:40.684Z,78.27
2022-11-16T08:13:42.326Z,77.63
2022-11-16T08:14:44.621Z,78.17
2022-11-16T08:15:40.701Z,78.78
2022-11-16T08:16:40.768Z,80.15
2022-11-16T08:17:40.755Z,79.23
2022-11-16T08:18:40.130Z,80.11
2022-11-16T08:19:54.755Z,82.54
2022-11-16T08:20:40.703Z,84.20
2022-11-16T08:21:40.749Z,85.94
2022-11-16T08:22:40.039Z,85.84
2022-11-16T08:23:40.730Z,85.84
2022-11-16T08:24:41.754Z,86.04
2022-11-16T08:25:40.654Z,86.21
2022-11-16T08:26:41.742Z,85.69
2022-11-16T08:27:41.376Z,85.55
2022-11-16T08:28:40.066Z,86.27
2022-11-16T08:29:39.983Z,86.13
2022-11-16T08:30:39.955Z,85.84
2022-11-16T08:31:47.868Z,83.15
2022-11-16T08:32:42.977Z,81.39
2022-11-16T08:33:41.400Z,80.64
2022-11-16T08:34:39.904Z,79.02
2022-11-16T08:35:39.886Z,78.61
2022-11-16T08:36:40.103Z,77.66
2022-11-16T08:37:40.734Z,77.66
2022-11-16T08:38:39.861Z,77.52
2022-11-16T08:39:39.870Z,77.69
2022-11-16T08:40:39.832Z,77.04
2022-11-16T08:41:40.054Z,75.12
2022-11-16T08:42:43.690Z,76.37
2022-11-16T08:43:39.818Z,76.00
2022-11-16T08:44:39.997Z,77.08
2022-11-16T08:45:39.837Z,77.41
2022-11-16T08:46:40.398Z,75.45
2022-11-16T08:47:39.978Z,74.00
2022-11-16T08:48:39.762Z,73.76
2022-11-16T08:49:40.133Z,72.81
2022-11-16T08:51:02.398Z,72.01
2022-11-16T08:51:59.861Z,70.69
2022-11-16T08:52:40.288Z,69.81
2022-11-16T08:53:39.687Z,69.18
2022-11-16T08:54:39.676Z,68.50
2022-11-16T08:55:40.209Z,69.31
2022-11-16T08:56:39.672Z,72.72
2022-11-16T08:57:40.074Z,70.79
2022-11-16T08:58:39.859Z,70.62
2022-11-16T08:59:40.771Z,69.71
2022-11-16T09:00:39.624Z,69.98
2022-11-16T09:01:40.319Z,69.85
2022-11-16T09:02:40.270Z,70.22
2022-11-16T09:03:40.855Z,69.62
2022-11-16T09:04:39.814Z,69.89
2022-11-16T09:05:39.575Z,68.37
2022-11-16T09:06:39.533Z,67.13
2022-11-16T09:07:39.566Z,66.59
2022-11-16T09:08:40.459Z,65.04
2022-11-16T09:09:41.415Z,66.55
2022-11-16T09:10:39.521Z,66.52
2022-11-16T09:11:41.545Z,69.72
2022-11-16T09:12:39.464Z,65.92
2022-11-16T09:14:00.809Z,63.60
2022-11-16T09:14:41.398Z,64.78
2022-11-16T09:15:39.434Z,63.62
2022-11-16T09:16:40.292Z,62.78
2022-11-16T09:17:42.096Z,61.24
2022-11-16T09:18:40.253Z,59.70
2022-11-16T09:19:42.886Z,61.49
2022-11-16T09:20:40.747Z,60.52
2022-11-16T09:21:39.373Z,57.81
2022-11-16T09:22:40.254Z,57.21
2022-11-16T09:23:39.350Z,57.87
2022-11-16T09:24:41.116Z,57.77
2022-11-16T09:25:39.556Z,57.59
2022-11-16T09:26:40.229Z,58.09
2022-11-16T09:27:39.338Z,59.95
2022-11-16T09:28:39.302Z,56.10
2022-11-16T09:29:40.237Z,56.41
2022-11-16T09:30:39.376Z,55.71
2022-11-16T09:31:39.262Z,55.28
2022-11-16T09:32:39.458Z,54.35
2022-11-16T09:33:42.400Z,54.02
2022-11-16T09:34:39.223Z,52.64
2022-11-16T09:35:39.235Z,55.90
2022-11-16T09:36:43.500Z,51.87
2022-11-16T09:37:42.184Z,51.46
2022-11-16T09:39:03.140Z,51.02
2022-11-16T09:39:39.771Z,50.32
2022-11-16T09:40:59.424Z,50.70
2022-11-16T09:41:43.502Z,49.35
2022-11-16T09:42:39.157Z,48.00
2022-11-16T09:43:45.322Z,47.68
2022-11-16T09:44:39.120Z,46.91
2022-11-16T09:45:39.101Z,47.92
2022-11-16T09:46:39.510Z,47.10
2022-11-16T09:47:40.487Z,48.94
2022-11-16T09:48:39.688Z,48.69
2022-11-16T09:49:39.701Z,49.74
2022-11-16T09:50:39.047Z,49.64
2022-11-16T09:51:39.028Z,49.72
2022-11-16T09:52:59.408Z,48.61
2022-11-16T09:53:39.763Z,47.61
2022-11-16T09:54:38.994Z,49.96
2022-11-16T09:55:39.197Z,49.87
2022-11-16T09:56:38.972Z,49.22
2022-11-16T09:57:39.170Z,47.69
2022-11-16T09:58:39.356Z,47.99
2022-11-16T09:59:38.945Z,47.87
2022-11-16T10:00:38.979Z,47.53
2022-11-16T10:01:39.014Z,46.50
2022-11-16T10:02:39.528Z,46.31
2022-11-16T10:03:38.992Z,46.15
2022-11-16T10:04:39.445Z,47.47
2022-11-16T10:05:58.808Z,47.09
2022-11-16T10:06:38.892Z,48.61
2022-11-16T10:07:39.809Z,47.81
2022-11-16T10:08:38.850Z,48.22
2022-11-16T10:09:38.852Z,46.97
2022-11-16T10:10:38.819Z,46.62
2022-11-16T10:11:39.076Z,47.30
2022-11-16T10:12:39.040Z,46.48
2022-11-16T10:13:38.799Z,45.36
2022-11-16T10:14:38.771Z,45.34
2022-11-16T10:15:38.785Z,44.57
2022-11-16T10:16:39.649Z,45.10
2022-11-16T10:17:38.764Z,45.83
2022-11-16T10:18:39.044Z,45.90
2022-11-16T10:19:38.732Z,44.49
2022-11-16T10:20:38.701Z,45.59
2022-11-16T10:21:38.699Z,45.39
2022-11-16T10:22:38.720Z,45.39
2022-11-16T10:23:38.660Z,46.25
2022-11-16T10:24:38.667Z,46.51
2022-11-16T10:25:39.578Z,47.19
2022-11-16T10:26:38.643Z,45.73
2022-11-16T10:27:39.608Z,44.99
2022-11-16T10:28:38.834Z,45.17
2022-11-16T10:29:39.747Z,45.83
2022-11-16T10:30:38.790Z,46.65
2022-11-16T10:31:39.069Z,45.43
2022-11-16T10:32:38.586Z,44.99
2022-11-16T10:33:38.581Z,45.18
2022-11-16T10:34:38.774Z,44.59
2022-11-16T10:35:38.703Z,44.27
2022-11-16T10:36:38.819Z,43.75
2022-11-16T10:37:38.512Z,44.76
2022-11-16T10:38:38.780Z,44.79
2022-11-16T10:39:38.495Z,45.47
2022-11-16T10:40:38.702Z,45.48
2022-11-16T10:41:38.503Z,44.87
2022-11-16T10:42:38.696Z,44.84
2022-11-16T10:43:38.552Z,43.01
2022-11-16T10:44:38.434Z,42.79
2022-11-16T10:45:38.427Z,42.97
2022-11-16T10:46:38.420Z,42.27
2022-11-16T10:47:38.411Z,42.57
2022-11-16T10:48:38.397Z,43.60
2022-11-16T10:49:38.637Z,42.85
2022-11-16T10:50:38.366Z,43.43
2022-11-16T10:51:38.386Z,43.21
2022-11-16T10:52:38.368Z,43.85
2022-11-16T10:53:38.442Z,43.73
2022-11-16T10:54:42.952Z,44.05
2022-11-16T10:55:38.326Z,45.26
2022-11-16T10:56:38.361Z,44.94
2022-11-16T10:57:38.310Z,43.60
2022-11-16T10:58:38.283Z,44.10
2022-11-16T10:59:38.286Z,42.99
2022-11-16T11:00:38.343Z,42.37
2022-11-16T11:01:39.172Z,42.77
2022-11-16T11:02:38.229Z,42.75
2022-11-16T11:03:39.790Z,41.83
2022-11-16T11:04:38.227Z,41.31
2022-11-16T11:05:38.213Z,42.27
2022-11-16T11:06:38.221Z,43.52
2022-11-16T11:07:38.259Z,43.65
2022-11-16T11:08:38.391Z,43.11
2022-11-16T11:09:38.151Z,43.03
2022-11-16T11:10:38.154Z,42.69
2022-11-16T11:11:38.156Z,41.97
2022-11-16T11:12:38.405Z,42.53
2022-11-16T11:13:38.727Z,41.44
2022-11-16T11:14:38.118Z,41.02
2022-11-16T11:15:38.107Z,41.00
2022-11-16T11:16:41.947Z,40.90
2022-11-16T11:17:38.608Z,40.78
2022-11-16T11:18:38.285Z,41.53
2022-11-16T11:19:38.277Z,41.53
2022-11-16T11:20:44.287Z,40.92
2022-11-16T11:21:38.031Z,41.93
2022-11-16T11:22:38.222Z,41.53
2022-11-16T11:23:38.039Z,40.72
2022-11-16T11:24:44.471Z,40.30
2022-11-16T11:25:38.053Z,40.36
2022-11-16T11:26:38.001Z,39.95
2022-11-16T11:27:38.844Z,39.98
2022-11-16T11:28:39.475Z,41.25
2022-11-16T11:29:39.182Z,42.59
2022-11-16T11:30:46.814Z,42.07
2022-11-16T11:31:39.427Z,42.35
2022-11-16T11:32:39.250Z,42.13
2022-11-16T11:33:39.402Z,41.69
2022-11-16T11:34:38.874Z,40.38
2022-11-16T11:35:37.883Z,39.75
2022-11-16T11:36:47.202Z,39.00
2022-11-16T11:37:39.206Z,38.51
2022-11-16T11:38:39.410Z,38.72
2022-11-16T11:42:21.455Z,39.65
2022-11-16T11:43:18.771Z,39.63
2022-11-16T11:44:13.021Z,38.72
2022-11-16T11:45:13.878Z,37.79
2022-11-16T11:46:17.863Z,37.98
2022-11-16T11:48:16.462Z,36.18
2022-11-16T11:49:15.128Z,36.37
2022-11-16T11:50:15.593Z,36.47
2022-11-16T11:51:12.474Z,36.90
2022-11-16T11:52:27.426Z,37.10
2022-11-16T11:53:14.976Z,36.71
2022-11-16T11:54:13.049Z,37.62
2022-11-16T11:55:12.806Z,38.85
2022-11-16T11:56:13.021Z,39.92
2022-11-16T11:57:18.955Z,40.62
2022-11-16T11:58:13.076Z,40.28
2022-11-16T11:59:13.770Z,39.06
2022-11-16T12:00:12.366Z,38.84
2022-11-16T12:01:15.958Z,39.07
2022-11-16T12:02:13.031Z,39.37
2022-11-16T12:03:13.574Z,37.96
2022-11-16T12:04:22.395Z,37.53
2022-11-16T12:05:25.351Z,37.51
2022-11-16T12:06:27.919Z,37.20
2022-11-16T12:07:13.072Z,36.88
2022-11-16T12:08:12.861Z,36.71
2022-11-16T12:09:12.829Z,36.88
2022-11-16T12:10:13.231Z,36.59
2022-11-16T12:11:20.326Z,36.57
2022-11-16T12:12:15.275Z,35.76
2022-11-16T12:13:13.054Z,34.74
2022-11-16T12:14:13.280Z,34.91
2022-11-16T12:15:13.016Z,36.36
2022-11-16T12:16:12.695Z,36.03
2022-11-16T12:17:12.710Z,36.24
2022-11-16T12:18:12.360Z,36.11
2022-11-16T12:19:12.119Z,35.40
2022-11-16T12:20:12.378Z,35.75
2022-11-16T12:21:13.049Z,36.96
2022-11-16T12:22:15.914Z,36.24
2022-11-16T12:23:15.897Z,36.36
2022-11-16T12:24:15.653Z,36.38
2022-11-16T12:25:12.086Z,37.37
2022-11-16T12:26:21.781Z,37.07
2022-11-16T12:27:15.017Z,37.70
2022-11-16T12:28:12.255Z,39.27
2022-11-16T12:29:12.249Z,39.43
2022-11-16T12:30:12.482Z,38.62
2022-11-16T12:31:12.226Z,37.57
2022-11-16T12:32:12.406Z,37.35
2022-11-16T12:33:15.640Z,36.52
2022-11-16T12:34:11.977Z,36.52
2022-11-16T12:35:11.968Z,37.07
2022-11-16T12:36:11.944Z,38.40
2022-11-16T12:37:14.755Z,38.28
2022-11-16T12:38:12.448Z,38.30
2022-11-16T12:39:12.996Z,39.78
2022-11-16T12:40:12.571Z,41.24
2022-11-16T12:41:11.947Z,42.77
2022-11-16T12:42:12.455Z,43.69
2022-11-16T12:43:11.863Z,44.55
2022-11-16T12:44:11.865Z,46.00
2022-11-16T12:45:13.327Z,44.09
2022-11-16T12:46:12.068Z,45.25
2022-11-16T12:47:11.844Z,47.02
2022-11-16T12:48:11.841Z,47.44
2022-11-16T12:49:12.119Z,46.15
2022-11-16T12:50:11.830Z,43.47
2022-11-16T12:51:11.785Z,41.58
2022-11-16T12:52:11.779Z,40.44
2022-11-16T12:53:11.803Z,41.42
2022-11-16T12:54:11.967Z,42.57
2022-11-16T12:55:25.993Z,44.35
2022-11-16T12:56:11.736Z,45.37
2022-11-16T12:57:11.711Z,45.69
2022-11-16T12:58:11.719Z,44.59
2022-11-16T12:59:12.266Z,43.27
2022-11-16T13:00:11.755Z,44.07
2022-11-16T13:01:11.943Z,43.21
2022-11-16T13:02:12.551Z,41.61
2022-11-16T13:03:11.637Z,42.63
2022-11-16T13:04:11.662Z,41.82
2022-11-16T13:05:11.631Z,42.13
2022-11-16T13:06:11.605Z,42.21
2022-11-16T13:07:11.807Z,42.01
2022-11-16T13:08:12.529Z,41.89
2022-11-16T13:09:11.571Z,40.64
2022-11-16T13:10:11.815Z,40.46
2022-11-16T13:11:11.565Z,41.71
2022-11-16T13:12:12.555Z,42.25
2022-11-16T13:13:41.513Z,42.55
2022-11-16T13:14:11.547Z,42.97
2022-11-16T13:15:15.629Z,43.29
2022-11-16T13:16:12.061Z,44.53
2022-11-16T13:17:12.263Z,45.57
2022-11-16T13:18:11.527Z,45.87
2022-11-16T13:19:11.534Z,45.79
2022-11-16T13:20:14.548Z,44.69
2022-11-16T13:21:11.465Z,42.81
2022-11-16T13:22:12.044Z,41.99
2022-11-16T13:23:13.043Z,40.58
2022-11-16T13:24:11.424Z,41.12
2022-11-16T13:25:11.420Z,42.45
2022-11-16T13:26:12.050Z,42.67
2022-11-16T13:27:14.049Z,43.91
2022-11-16T13:28:11.388Z,44.65
2022-11-16T13:29:11.367Z,45.37
2022-11-16T13:30:11.381Z,44.81
2022-11-16T13:31:11.344Z,43.59
2022-11-16T13:32:11.869Z,42.97
2022-11-16T13:33:11.738Z,42.53
2022-11-16T13:34:11.346Z,41.47
2022-11-16T13:35:11.305Z,41.47
2022-11-16T13:36:12.003Z,40.16
2022-11-16T13:37:11.288Z,39.83
2022-11-16T13:38:11.289Z,40.78
2022-11-16T13:39:11.268Z,42.55
2022-11-16T13:40:11.318Z,44.95
2022-11-16T13:41:11.239Z,47.22
2022-11-16T13:42:11.246Z,47.52
2022-11-16T13:43:11.209Z,46.03
2022-11-16T13:44:12.486Z,44.69
2022-11-16T13:45:11.214Z,44.41
2022-11-16T13:46:22.328Z,45.39
2022-11-16T13:47:11.171Z,46.92
2022-11-16T13:48:11.163Z,48.08
2022-11-16T13:49:11.159Z,49.63
2022-11-16T13:50:11.147Z,51.61
2022-11-16T13:51:11.125Z,52.84
2022-11-16T13:52:35.640Z,54.08
2022-11-16T13:54:44.658Z,54.30
2022-11-16T13:55:11.083Z,54.73
2022-11-16T13:56:11.158Z,54.93
2022-11-16T13:57:11.068Z,55.33
2022-11-16T13:58:11.055Z,55.46
2022-11-16T13:59:11.048Z,55.56
2022-11-16T14:00:11.069Z,55.59
2022-11-16T14:01:11.224Z,56.32
2022-11-16T14:02:11.020Z,56.52
2022-11-16T14:03:11.029Z,56.42
2022-11-16T14:04:10.977Z,56.75
2022-11-16T14:05:11.014Z,57.35
2022-11-16T14:06:11.044Z,57.68
2022-11-16T14:07:11.043Z,58.12
2022-11-16T14:08:10.955Z,58.92
2022-11-16T14:09:10.944Z,58.72
2022-11-16T14:10:10.936Z,59.33
2022-11-16T14:11:10.965Z,59.86
2022-11-16T14:12:10.903Z,60.26
2022-11-16T14:13:10.886Z,60.06
2022-11-16T14:14:10.886Z,60.46
2022-11-16T14:15:10.901Z,60.77
2022-11-16T14:16:10.992Z,60.57
2022-11-16T14:17:10.846Z,61.27
2022-11-16T14:18:10.838Z,60.57
2022-11-16T14:19:10.810Z,60.24
2022-11-16T14:20:10.810Z,59.40
2022-11-16T14:21:10.795Z,59.60
2022-11-16T14:22:10.788Z,59.70
2022-11-16T14:23:10.786Z,59.50
2022-11-16T14:24:10.771Z,59.70
2022-11-16T14:25:10.811Z,59.60
2022-11-16T14:26:10.965Z,60.33
2022-11-16T14:27:10.735Z,60.84
2022-11-16T14:28:10.740Z,60.84
2022-11-16T14:29:10.703Z,60.66
2022-11-16T14:30:10.730Z,60.87
2022-11-16T14:31:10.832Z,61.07
2022-11-16T14:32:10.703Z,61.27
2022-11-16T14:33:10.659Z,61.07
2022-11-16T14:34:10.655Z,60.87
2022-11-16T14:35:11.094Z,61.37
2022-11-16T14:36:10.671Z,61.27
2022-11-16T14:37:10.634Z,61.17
2022-11-16T14:38:10.624Z,61.24
2022-11-16T14:39:10.643Z,61.04
2022-11-16T14:40:10.580Z,61.04
2022-11-16T14:41:10.576Z,61.24
2022-11-16T14:42:10.569Z,61.47
2022-11-16T14:43:17.787Z,62.08
2022-11-16T14:44:10.562Z,62.41
2022-11-16T14:45:10.536Z,63.35
2022-11-16T14:46:10.538Z,63.65
2022-11-16T14:47:10.519Z,64.19
2022-11-16T14:48:10.508Z,64.29
2022-11-16T14:49:10.477Z,64.39
2022-11-16T14:50:10.482Z,64.49
2022-11-16T14:51:10.512Z,64.39
2022-11-16T14:52:10.490Z,65.03
2022-11-16T14:53:10.454Z,65.10
2022-11-16T14:54:10.448Z,65.64
2022-11-16T14:55:10.421Z,65.23
2022-11-16T14:56:10.512Z,65.30
2022-11-16T14:57:10.411Z,65.00
2022-11-16T14:58:10.394Z,65.50
2022-11-16T14:59:10.384Z,65.40
2022-11-16T15:00:10.379Z,65.33
2022-11-16T15:01:10.363Z,65.94
2022-11-16T15:02:10.339Z,66.47
2022-11-16T15:03:10.401Z,66.91
2022-11-16T15:04:10.340Z,67.32
2022-11-16T15:05:10.310Z,67.42
2022-11-16T15:06:10.327Z,67.82
2022-11-16T15:07:10.323Z,67.82
2022-11-16T15:08:10.278Z,68.16
2022-11-16T15:09:10.286Z,68.26
2022-11-16T15:10:10.282Z,68.23
2022-11-16T15:11:10.250Z,68.02
2022-11-16T15:12:11.088Z,68.46
2022-11-16T15:13:10.220Z,69.07
2022-11-16T15:14:10.285Z,69.61
2022-11-16T15:15:10.194Z,69.51
2022-11-16T15:16:10.199Z,69.71
2022-11-16T15:17:10.175Z,70.01
2022-11-16T15:18:10.183Z,70.12
2022-11-16T15:19:10.169Z,70.01
2022-11-16T15:20:10.173Z,70.25
2022-11-16T15:21:10.169Z,70.35
2022-11-16T15:22:10.123Z,70.35
2022-11-16T15:24:28.913Z,70.76
2022-11-16T15:25:04.115Z,71.20
2022-11-16T15:26:04.057Z,71.30
2022-11-16T15:27:04.100Z,71.50
2022-11-16T15:28:04.048Z,71.60
2022-11-16T15:29:04.023Z,72.04
2022-11-16T15:30:04.077Z,72.04
2022-11-16T15:31:04.053Z,71.94
2022-11-16T15:32:03.996Z,72.11
2022-11-16T15:33:03.969Z,72.14
2022-11-16T15:34:03.983Z,72.55
2022-11-16T15:35:05.548Z,72.65
2022-11-16T15:36:03.947Z,73.29
2022-11-16T15:37:03.954Z,73.29
2022-11-16T15:38:03.927Z,73.50
2022-11-16T15:39:03.910Z,73.50
2022-11-16T15:40:03.915Z,73.39
2022-11-16T15:41:03.899Z,73.39
2022-11-16T15:42:04.451Z,73.39
2022-11-16T15:43:03.875Z,73.50
2022-11-16T15:44:17.586Z,73.29
2022-11-16T15:45:03.876Z,73.39
2022-11-16T15:46:03.835Z,73.19
2022-11-16T15:47:03.835Z,72.96
2022-11-16T15:48:03.840Z,72.99
2022-11-16T15:49:03.838Z,72.89
2022-11-16T15:50:03.791Z,72.89
2022-11-16T15:51:05.094Z,73.19
2022-11-16T15:52:03.781Z,73.19
2022-11-16T15:53:03.762Z,72.99
2022-11-16T15:54:03.749Z,73.09
2022-11-16T15:55:03.780Z,73.39
2022-11-16T15:56:03.770Z,73.53
2022-11-16T15:57:03.711Z,73.74
2022-11-16T15:58:03.773Z,74.04
2022-11-16T15:59:03.684Z,74.38
2022-11-16T16:00:03.769Z,74.68
2022-11-16T16:01:03.712Z,74.88
2022-11-16T16:02:03.658Z,75.23
2022-11-16T16:03:03.637Z,75.73
2022-11-16T16:04:03.622Z,75.73
2022-11-16T16:05:03.669Z,76.04
2022-11-16T16:06:03.621Z,76.04
2022-11-16T16:07:03.685Z,76.48
2022-11-16T16:08:03.629Z,76.59
2022-11-16T16:09:03.568Z,76.59
2022-11-16T16:10:03.662Z,76.79
2022-11-16T16:11:03.609Z,76.59
2022-11-16T16:12:03.545Z,76.59
2022-11-16T16:13:03.561Z,76.89
2022-11-16T16:14:03.536Z,76.79
2022-11-16T16:15:03.542Z,76.99
2022-11-16T16:16:03.523Z,77.09
2022-11-16T16:17:03.496Z,77.23
2022-11-16T16:18:03.496Z,77.53
2022-11-16T16:19:09.284Z,77.94
2022-11-16T16:20:03.629Z,78.05
2022-11-16T16:21:03.465Z,78.25
2022-11-16T16:22:03.428Z,78.49
2022-11-16T16:23:03.423Z,78.80
2022-11-16T16:24:03.437Z,78.89
2022-11-16T16:25:03.434Z,79.10
2022-11-16T16:26:03.417Z,79.34
2022-11-16T16:27:03.366Z,79.44
2022-11-16T16:28:03.413Z,79.54
2022-11-16T16:29:03.401Z,79.75
2022-11-16T16:30:03.463Z,79.85
2022-11-16T16:31:03.344Z,80.05
2022-11-16T16:32:03.379Z,79.85
2022-11-16T16:33:03.310Z,79.95
2022-11-16T16:34:03.299Z,79.95
2022-11-16T16:35:03.289Z,79.95
2022-11-16T16:36:03.273Z,79.95
2022-11-16T16:37:03.281Z,79.95
2022-11-16T16:38:03.257Z,80.29
2022-11-16T16:39:03.264Z,80.50
2022-11-16T16:40:03.364Z,80.60
2022-11-16T16:41:03.226Z,80.80
2022-11-16T16:42:03.241Z,80.70
2022-11-16T16:43:03.220Z,80.80
2022-11-16T16:44:03.192Z,80.80
2022-11-16T16:45:03.199Z,81.04
2022-11-16T16:46:03.167Z,80.94
2022-11-16T16:47:03.137Z,81.15
2022-11-16T16:48:03.154Z,81.04
2022-11-16T16:49:03.125Z,81.35
2022-11-16T16:50:03.113Z,81.56
2022-11-16T16:51:03.127Z,81.56
2022-11-16T16:52:03.102Z,81.96
2022-11-16T16:53:03.083Z,82.07
2022-11-16T16:54:03.070Z,82.07
2022-11-16T16:55:03.061Z,82.10
2022-11-16T16:56:03.043Z,82.41
2022-11-16T16:57:03.044Z,82.31
2022-11-16T16:58:03.018Z,82.21
2022-11-16T16:59:03.004Z,82.51
2022-11-16T17:00:03.096Z,82.82
2022-11-16T17:01:03.035Z,82.71
2022-11-16T17:02:02.979Z,82.92
2022-11-16T17:03:02.967Z,83.16
2022-11-16T17:04:02.969Z,83.37
2022-11-16T17:05:02.968Z,83.47
2022-11-16T17:06:02.922Z,83.67
2022-11-16T17:07:03.060Z,83.78
2022-11-16T17:08:02.925Z,83.78
2022-11-16T17:09:02.892Z,83.87
2022-11-16T17:10:02.894Z,83.78
2022-11-16T17:11:02.870Z,83.67
2022-11-16T17:12:02.855Z,83.78
2022-11-16T17:13:02.853Z,83.47
2022-11-16T17:14:02.844Z,83.37
2022-11-16T17:15:02.871Z,83.57
2022-11-16T17:16:02.832Z,83.87
2022-11-16T17:17:02.813Z,83.81
2022-11-16T17:18:02.806Z,84.12
2022-11-16T17:19:02.793Z,84.22
2022-11-16T17:20:02.773Z,84.33
2022-11-16T17:21:02.776Z,84.22
2022-11-16T17:22:02.772Z,84.33
2022-11-16T17:23:02.745Z,84.33
2022-11-16T17:24:02.748Z,84.33
2022-11-16T17:25:02.724Z,84.42
2022-11-16T17:26:02.712Z,84.53
2022-11-16T17:27:02.718Z,84.42
2022-11-16T17:28:02.705Z,84.42
2022-11-16T17:29:02.675Z,84.67
2022-11-16T17:30:02.655Z,84.98
2022-11-16T17:31:02.696Z,84.98
2022-11-16T17:32:02.664Z,85.08
2022-11-16T17:33:02.645Z,84.77
2022-11-16T17:34:02.610Z,84.88
2022-11-16T17:35:02.663Z,84.88
2022-11-16T17:36:02.607Z,85.18
2022-11-16T17:37:02.632Z,85.18
2022-11-16T17:38:02.570Z,84.98
2022-11-16T17:39:02.585Z,85.28
2022-11-16T17:40:02.600Z,85.38
2022-11-16T17:41:02.551Z,85.69
2022-11-16T17:42:02.538Z,86.00
2022-11-16T17:43:02.505Z,86.00
2022-11-16T17:44:02.507Z,86.41
2022-11-16T17:45:02.485Z,86.61
2022-11-16T17:46:02.477Z,86.41
2022-11-16T17:47:02.479Z,86.61
2022-11-16T17:48:02.608Z,86.51
2022-11-16T17:49:02.445Z,86.65
2022-11-16T17:50:02.426Z,86.91
2022-11-16T17:51:02.424Z,86.96
2022-11-16T17:52:02.412Z,86.96
2022-11-16T17:53:02.434Z,87.16
2022-11-16T17:54:02.394Z,87.16
2022-11-16T17:55:02.384Z,87.06
2022-11-16T17:56:02.359Z,87.06
2022-11-16T17:57:02.350Z,86.96
2022-11-16T17:58:02.353Z,86.96
2022-11-16T17:59:02.366Z,87.06
2022-11-16T18:00:02.316Z,87.06
2022-11-16T18:01:02.363Z,86.96
2022-11-16T18:02:02.369Z,86.85
2022-11-16T18:03:02.290Z,87.26
2022-11-16T18:04:02.286Z,87.26
2022-11-16T18:05:02.268Z,87.37
2022-11-16T18:06:02.261Z,87.82
2022-11-16T18:07:02.319Z,87.61